Time;durP1;ratioP1;P1;durP2;ratioP2;P2;SDS_P1;SDS_P2;PMS_P1;PMS_P2;Temp;Humidity;BMP_temperature;BMP_pressure;BME280_temperature;BME280_humidity;BME280_pressure;Samples;Min_cycle;Max_cycle;Signal;HPM_P1;HPM_P2
2022/11/08 00:01:59;;;;;;;15.68;2.80;;;15.00;99.90;;;;;;5064378;28;20058;-69
2022/11/08 00:04:25;;;;;;;16.73;3.25;;;15.00;99.90;;;;;;5063712;28;20028;-70
2022/11/08 00:15:05;;;;;;;19.58;3.45;;;15.10;99.90;;;;;;5064965;28;20085;-70
2022/11/08 00:17:31;;;;;;;21.20;3.25;;;15.00;99.90;;;;;;5064149;28;20024;-69
2022/11/08 00:19:57;;;;;;;16.33;2.92;;;15.10;99.90;;;;;;5063895;28;20123;-70
2022/11/08 00:22:23;;;;;;;17.95;3.20;;;15.10;99.90;;;;;;5045634;28;20170;-69
2022/11/08 00:24:50;;;;;;;20.63;3.03;;;15.10;99.90;;;;;;5056986;28;20028;-69
2022/11/08 00:27:19;;;;;;;17.10;3.22;;;15.10;99.90;;;;;;5064650;28;20029;-69
2022/11/08 00:29:45;;;;;;;23.80;3.60;;;15.10;99.90;;;;;;5059648;28;20100;-69
2022/11/08 00:32:14;;;;;;;15.27;2.83;;;15.20;99.90;;;;;;5063622;28;20438;-69
2022/11/08 00:34:40;;;;;;;17.73;3.20;;;15.20;99.90;;;;;;5061546;28;20028;-69
2022/11/08 00:37:06;;;;;;;16.40;3.20;;;15.20;99.90;;;;;;5065372;28;20043;-70
2022/11/08 00:39:32;;;;;;;15.50;3.38;;;15.20;99.90;;;;;;5045885;28;20036;-70
2022/11/08 00:41:57;;;;;;;18.42;3.50;;;15.30;99.90;;;;;;5066002;28;20044;-70
2022/11/08 00:44:23;;;;;;;15.60;3.15;;;15.30;99.90;;;;;;5064043;28;20036;-70
2022/11/08 00:46:49;;;;;;;15.63;3.22;;;15.20;99.90;;;;;;5065189;28;20032;-70
2022/11/08 00:49:16;;;;;;;17.23;3.40;;;15.30;99.90;;;;;;5057056;28;20064;-70
2022/11/08 00:51:42;;;;;;;13.52;3.33;;;15.30;99.90;;;;;;5046677;28;20086;-69
2022/11/08 00:54:12;;;;;;;18.83;3.58;;;15.30;99.90;;;;;;5051585;28;20040;-69
2022/11/08 00:56:38;;;;;;;14.70;3.50;;;15.30;99.90;;;;;;5046820;28;20394;-68
2022/11/08 00:59:03;;;;;;;15.82;2.72;;;15.30;99.90;;;;;;5066562;28;20553;-68
2022/11/08 01:01:29;;;;;;;12.88;2.78;;;15.30;99.90;;;;;;5067242;28;20040;-70
2022/11/08 01:03:55;;;;;;;16.15;2.78;;;15.30;99.90;;;;;;5058722;28;20036;-69
2022/11/08 01:06:22;;;;;;;18.15;3.05;;;15.30;99.90;;;;;;5076248;28;20031;-69
2022/11/08 01:08:51;;;;;;;16.08;3.70;;;15.30;99.90;;;;;;5065000;28;20094;-69
2022/11/08 01:11:19;;;;;;;17.52;3.50;;;15.30;99.90;;;;;;5049218;28;20651;-69
2022/11/08 01:13:45;;;;;;;15.55;3.20;;;15.30;99.90;;;;;;5067980;28;20040;-69
2022/11/08 01:16:16;;;;;;;14.73;3.20;;;15.20;99.90;;;;;;5067497;28;20467;-69
2022/11/08 01:18:43;;;;;;;10.85;2.90;;;15.30;99.90;;;;;;5068160;28;20036;-69
2022/11/08 01:21:10;;;;;;;12.48;3.00;;;15.30;99.90;;;;;;5069224;28;20115;-69
2022/11/08 01:23:36;;;;;;;10.27;2.67;;;15.30;99.90;;;;;;5069384;28;20064;-69
2022/11/08 01:26:04;;;;;;;15.82;2.72;;;15.40;99.90;;;;;;5070003;28;20036;-70
2022/11/08 01:28:31;;;;;;;13.43;2.50;;;15.40;99.90;;;;;;5050322;28;20036;-68
2022/11/08 01:30:56;;;;;;;12.00;2.60;;;15.40;99.90;;;;;;5068671;28;20043;-68
2022/11/08 01:33:22;;;;;;;13.85;2.70;;;15.40;99.90;;;;;;5068946;28;20040;-69
2022/11/08 01:35:47;;;;;;;14.85;3.10;;;15.40;99.90;;;;;;5067462;28;20024;-68
2022/11/08 01:38:13;;;;;;;15.23;2.85;;;15.40;99.90;;;;;;5048530;28;20029;-69
2022/11/08 01:40:46;;;;;;;13.00;2.63;;;15.40;99.90;;;;;;5067878;28;20029;-69
2022/11/08 01:43:24;;;;;;;15.45;2.90;;;15.50;99.90;;;;;;5048899;28;20068;-69
2022/11/08 01:46:09;;;;;;;11.68;3.05;;;15.50;99.90;;;;;;5069289;28;20029;-70
2022/11/08 01:48:37;;;;;;;16.23;3.38;;;15.40;99.90;;;;;;5049183;28;20502;-69
2022/11/08 01:51:05;;;;;;;16.38;2.50;;;15.40;99.90;;;;;;5066499;28;20033;-70
2022/11/08 01:53:31;;;;;;;15.73;3.60;;;15.40;99.90;;;;;;5063279;28;20036;-69
2022/11/08 01:55:57;;;;;;;15.30;2.97;;;15.50;99.90;;;;;;5063642;28;20367;-69
2022/11/08 01:58:26;;;;;;;14.57;3.05;;;15.40;99.90;;;;;;5059361;28;20541;-69
2022/11/08 02:00:52;;;;;;;14.60;3.17;;;15.40;99.90;;;;;;5066765;28;20059;-71
2022/11/08 02:03:19;;;;;;;12.90;2.75;;;15.40;99.90;;;;;;5065837;28;20119;-70
2022/11/08 02:05:46;;;;;;;17.05;3.35;;;15.40;99.90;;;;;;5067030;28;20440;-68
2022/11/08 02:08:27;;;;;;;11.18;2.90;;;15.40;99.90;;;;;;5066715;28;20899;-69
2022/11/08 02:10:53;;;;;;;15.48;3.10;;;15.50;99.90;;;;;;5066812;28;20541;-70
2022/11/08 02:13:30;;;;;;;14.93;3.28;;;15.50;99.90;;;;;;5067603;28;20040;-68
2022/11/08 02:15:56;;;;;;;12.05;2.40;;;15.50;99.90;;;;;;5066668;28;20037;-68
2022/11/08 02:18:26;;;;;;;16.60;2.97;;;15.50;99.90;;;;;;5066087;28;20028;-69
2022/11/08 02:21:24;;;;;;;13.55;3.40;;;15.60;99.90;;;;;;5067782;28;20040;-69
2022/11/08 02:23:52;;;;;;;16.73;3.17;;;15.60;99.90;;;;;;5040099;28;20045;-69
2022/11/08 02:26:21;;;;;;;14.32;2.90;;;15.60;99.90;;;;;;5066063;28;20390;-69
2022/11/08 02:28:48;;;;;;;15.35;3.42;;;15.60;99.90;;;;;;5066094;28;20032;-69
2022/11/08 02:31:16;;;;;;;11.00;2.53;;;15.60;99.90;;;;;;5064482;28;20822;-69
2022/11/08 02:33:42;;;;;;;12.90;2.80;;;15.60;99.90;;;;;;5064648;28;20778;-69
2022/11/08 02:36:12;;;;;;;11.45;2.58;;;15.60;99.90;;;;;;5067374;28;20043;-70
2022/11/08 02:38:41;;;;;;;12.52;2.65;;;15.60;99.90;;;;;;5049710;28;20025;-70
2022/11/08 02:41:06;;;;;;;11.38;2.95;;;15.70;99.90;;;;;;5067029;28;20048;-71
2022/11/08 02:43:32;;;;;;;18.50;3.42;;;15.60;99.90;;;;;;5067735;28;20055;-70
2022/11/08 02:45:58;;;;;;;14.57;2.40;;;15.50;99.90;;;;;;5042553;28;20040;-69
2022/11/08 02:48:24;;;;;;;10.77;2.03;;;15.50;99.90;;;;;;5067812;28;20032;-70
2022/11/08 02:50:50;;;;;;;11.95;2.22;;;15.40;99.90;;;;;;5048995;28;20055;-70
2022/11/08 02:53:16;;;;;;;10.02;2.50;;;15.40;99.90;;;;;;5067169;28;20036;-70
2022/11/08 02:55:42;;;;;;;9.10;2.33;;;15.40;99.90;;;;;;5067240;28;20676;-69
2022/11/08 02:58:08;;;;;;;8.02;2.30;;;15.40;99.90;;;;;;5053287;28;20159;-70
2022/11/08 03:00:34;;;;;;;12.63;2.65;;;15.40;99.90;;;;;;5066027;28;20536;-70
2022/11/08 03:03:00;;;;;;;14.38;2.63;;;15.40;99.90;;;;;;5066422;28;20036;-70
2022/11/08 03:05:27;;;;;;;11.52;2.55;;;15.40;99.90;;;;;;5066204;28;20039;-69
2022/11/08 03:07:53;;;;;;;13.18;2.45;;;15.30;99.90;;;;;;5067453;28;20032;-71
2022/11/08 03:10:19;;;;;;;10.25;2.58;;;15.30;99.90;;;;;;5048174;28;20029;-69
2022/11/08 03:12:45;;;;;;;21.30;3.65;;;15.20;99.90;;;;;;5068994;28;20031;-69
2022/11/08 03:15:13;;;;;;;13.20;2.88;;;15.20;99.90;;;;;;5055634;28;20025;-70
2022/11/08 03:17:39;;;;;;;11.20;2.83;;;15.10;99.90;;;;;;5066982;28;20040;-69
2022/11/08 03:20:06;;;;;;;12.13;2.40;;;15.00;99.90;;;;;;5067048;28;20033;-70
2022/11/08 03:22:32;;;;;;;13.48;2.85;;;15.00;99.90;;;;;;5048052;28;20036;-70
2022/11/08 03:24:58;;;;;;;14.27;3.05;;;14.90;99.90;;;;;;5048389;28;20363;-70
2022/11/08 03:27:23;;;;;;;12.15;2.40;;;14.90;99.90;;;;;;5066606;28;20546;-69
2022/11/08 03:29:49;;;;;;;10.50;2.80;;;14.80;99.90;;;;;;5049024;28;20402;-69
2022/11/08 03:32:15;;;;;;;14.85;3.30;;;14.70;99.90;;;;;;5049056;28;20032;-70
2022/11/08 03:34:41;;;;;;;10.13;3.08;;;14.70;99.90;;;;;;5064741;28;20044;-69
2022/11/08 03:37:08;;;;;;;12.30;2.47;;;14.60;99.90;;;;;;5047897;28;20043;-70
2022/11/08 03:39:34;;;;;;;12.85;2.70;;;14.60;99.90;;;;;;5065422;28;20482;-69
2022/11/08 03:42:03;;;;;;;13.20;2.67;;;14.50;99.90;;;;;;5066052;28;20043;-69
2022/11/08 03:44:29;;;;;;;17.67;3.08;;;14.50;99.90;;;;;;5064335;28;20029;-69
2022/11/08 03:46:55;;;;;;;12.10;2.72;;;14.60;99.90;;;;;;5066890;28;20399;-70
2022/11/08 03:49:20;;;;;;;13.50;2.83;;;14.60;99.90;;;;;;5066099;28;20041;-69
2022/11/08 03:51:47;;;;;;;17.42;3.70;;;14.50;99.90;;;;;;5066279;28;20733;-70
2022/11/08 03:54:12;;;;;;;19.27;3.25;;;14.50;99.90;;;;;;5060136;28;20421;-70
2022/11/08 03:56:38;;;;;;;16.92;2.92;;;14.50;99.90;;;;;;5066837;28;20541;-68
2022/11/08 03:59:04;;;;;;;18.05;2.80;;;14.50;99.90;;;;;;5065983;28;20037;-70
2022/11/08 04:01:29;;;;;;;14.48;2.88;;;14.40;99.90;;;;;;5064948;28;20036;-69
2022/11/08 04:03:56;;;;;;;13.38;2.80;;;14.30;99.90;;;;;;5064886;28;20098;-69
2022/11/08 04:06:22;;;;;;;14.38;3.13;;;14.30;99.90;;;;;;5046998;28;20028;-69
2022/11/08 04:08:47;;;;;;;10.60;2.55;;;14.20;99.90;;;;;;5064880;28;20036;-69
2022/11/08 04:16:42;;;;;;;20.98;2.80;;;14.10;99.90;;;;;;5066496;28;20145;-68
2022/11/08 04:21:53;;;;;;;12.85;2.55;;;14.00;99.90;;;;;;5065695;28;20032;-68
2022/11/08 04:24:19;;;;;;;11.05;2.45;;;14.00;99.90;;;;;;5063314;28;20466;-67
2022/11/08 04:26:45;;;;;;;12.00;2.15;;;14.00;99.90;;;;;;5059225;28;20082;-69
2022/11/08 04:29:12;;;;;;;16.42;2.42;;;14.00;99.90;;;;;;5061163;28;20050;-68
2022/11/08 04:31:38;;;;;;;12.85;2.30;;;13.90;99.90;;;;;;5064913;28;20028;-68
2022/11/08 04:34:03;;;;;;;11.07;1.90;;;13.90;99.90;;;;;;5067620;28;20029;-69
2022/11/08 04:36:29;;;;;;;16.85;2.42;;;13.90;99.90;;;;;;5069446;28;20078;-69
2022/11/08 04:38:54;;;;;;;16.63;2.90;;;13.90;99.90;;;;;;5069494;28;20050;-68
2022/11/08 04:41:24;;;;;;;20.40;2.88;;;13.90;99.90;;;;;;5068996;28;20144;-70
2022/11/08 04:43:51;;;;;;;11.68;2.17;;;13.90;99.90;;;;;;5067940;28;20043;-70
2022/11/08 04:46:22;;;;;;;9.43;1.75;;;13.90;99.90;;;;;;5054795;28;20102;-69
2022/11/08 04:48:53;;;;;;;10.23;1.75;;;14.00;99.90;;;;;;5068714;28;20115;-70
2022/11/08 04:51:21;;;;;;;11.55;2.22;;;14.00;99.90;;;;;;5069060;28;20041;-70
2022/11/08 04:53:48;;;;;;;13.13;2.08;;;14.00;99.90;;;;;;5050756;28;20028;-69
2022/11/08 04:56:18;;;;;;;9.00;2.05;;;14.00;99.90;;;;;;5067709;28;20082;-71
2022/11/08 04:58:56;;;;;;;16.67;2.60;;;13.90;99.90;;;;;;5069084;28;20040;-70
2022/11/08 05:01:24;;;;;;;8.63;1.98;;;13.90;99.90;;;;;;5067309;28;20169;-71
2022/11/08 05:03:51;;;;;;;11.73;2.28;;;14.00;99.90;;;;;;5068052;28;20756;-71
2022/11/08 05:06:19;;;;;;;12.32;2.00;;;14.00;99.90;;;;;;5073622;28;20050;-71
2022/11/08 05:08:45;;;;;;;9.90;2.20;;;14.00;99.90;;;;;;5065019;28;20489;-70
2022/11/08 05:11:16;;;;;;;6.93;1.90;;;14.00;99.90;;;;;;5056693;28;20033;-68
2022/11/08 05:13:43;;;;;;;15.98;1.67;;;14.00;99.90;;;;;;5050392;28;20490;-71
2022/11/08 05:16:25;;;;;;;9.13;1.67;;;14.00;99.90;;;;;;5068173;28;20036;-70
2022/11/08 05:18:51;;;;;;;10.50;1.40;;;14.00;99.90;;;;;;5069068;28;20043;-70
2022/11/08 05:24:05;;;;;;;9.68;1.27;;;14.00;99.90;;;;;;5050114;28;20116;-71
2022/11/08 05:26:33;;;;;;;10.40;1.60;;;14.10;99.90;;;;;;5061456;28;20078;-70
2022/11/08 05:28:58;;;;;;;9.60;1.45;;;14.20;99.90;;;;;;5069520;28;20052;-70
2022/11/08 05:31:24;;;;;;;12.20;1.92;;;14.20;99.90;;;;;;5069371;28;20040;-70
2022/11/08 05:33:51;;;;;;;13.07;1.55;;;14.20;99.90;;;;;;5069834;28;20037;-70
2022/11/08 05:36:17;;;;;;;10.48;1.33;;;14.20;99.90;;;;;;5069686;28;20079;-71
2022/11/08 05:38:43;;;;;;;10.18;2.35;;;14.20;99.90;;;;;;5069357;28;20040;-71
2022/11/08 05:41:17;;;;;;;11.10;1.48;;;14.30;99.90;;;;;;5068396;28;20086;-71
2022/11/08 05:43:48;;;;;;;13.77;1.52;;;14.30;99.90;;;;;;5068803;28;20497;-70
2022/11/08 05:46:15;;;;;;;13.57;1.70;;;14.30;99.90;;;;;;5067666;28;20032;-71
2022/11/08 05:48:42;;;;;;;6.72;1.10;;;14.30;99.90;;;;;;5068446;28;20024;-70
2022/11/08 05:51:07;;;;;;;10.88;1.60;;;14.40;99.90;;;;;;5039020;28;20402;-71
2022/11/08 05:53:33;;;;;;;11.35;1.80;;;14.30;99.90;;;;;;5068188;28;20029;-70
2022/11/08 05:56:01;;;;;;;11.82;1.70;;;14.30;99.90;;;;;;5050955;28;20033;-71
2022/11/08 05:58:28;;;;;;;12.15;1.75;;;14.30;99.90;;;;;;5067856;28;20052;-72
2022/11/08 06:01:11;;;;;;;7.60;1.58;;;14.20;99.90;;;;;;5066173;28;20075;-72
2022/11/08 06:03:37;;;;;;;12.18;1.90;;;14.20;99.90;;;;;;5060126;28;20394;-72
2022/11/08 06:06:14;;;;;;;9.90;1.52;;;14.20;99.90;;;;;;5067462;28;20112;-71
2022/11/08 06:08:40;;;;;;;12.48;2.40;;;14.20;99.90;;;;;;5067118;28;20737;-71
2022/11/08 06:11:11;;;;;;;11.60;1.77;;;14.10;99.90;;;;;;5048450;28;20487;-71
2022/11/08 06:13:38;;;;;;;11.60;2.03;;;14.10;99.90;;;;;;5064953;28;20672;-71
2022/11/08 06:16:15;;;;;;;13.50;2.20;;;14.10;99.90;;;;;;5065208;28;20032;-71
2022/11/08 06:18:41;;;;;;;9.35;1.75;;;14.10;99.90;;;;;;5067072;28;20054;-71
2022/11/08 06:21:09;;;;;;;14.88;1.58;;;14.10;99.90;;;;;;5064372;28;20546;-70
2022/11/08 06:23:35;;;;;;;9.30;1.73;;;14.10;99.90;;;;;;5049263;28;20024;-71
2022/11/08 06:26:01;;;;;;;12.85;2.05;;;14.10;99.90;;;;;;5066232;28;20028;-71
2022/11/08 06:28:27;;;;;;;12.35;2.00;;;14.10;99.90;;;;;;5065146;28;20471;-72
2022/11/08 06:30:53;;;;;;;10.93;2.20;;;14.10;99.90;;;;;;5064150;28;20032;-72
2022/11/08 06:33:19;;;;;;;14.50;1.85;;;14.10;99.90;;;;;;5066975;28;20383;-70
2022/11/08 06:35:45;;;;;;;13.05;1.70;;;14.10;99.90;;;;;;5066404;28;20540;-71
2022/11/08 06:38:11;;;;;;;11.80;1.50;;;14.00;99.90;;;;;;5068736;28;20052;-71
2022/11/08 06:40:38;;;;;;;11.05;2.33;;;14.00;99.90;;;;;;5048142;28;20040;-70
2022/11/08 06:43:04;;;;;;;10.80;1.60;;;13.90;99.90;;;;;;5066084;28;20051;-71
2022/11/08 06:45:29;;;;;;;9.82;1.45;;;13.90;99.90;;;;;;5065967;28;20479;-70
2022/11/08 06:47:57;;;;;;;13.23;2.38;;;13.80;99.90;;;;;;5065320;28;20123;-71
2022/11/08 06:50:23;;;;;;;13.10;2.58;;;13.70;99.90;;;;;;5064142;28;20070;-71
2022/11/08 06:52:55;;;;;;;12.70;2.17;;;13.70;99.90;;;;;;5048389;28;20052;-70
2022/11/08 06:55:21;;;;;;;12.73;2.00;;;13.80;99.90;;;;;;5063424;28;20775;-70
2022/11/08 06:57:46;;;;;;;11.55;1.70;;;13.80;99.90;;;;;;5068948;28;20032;-68
2022/11/08 07:00:14;;;;;;;16.65;2.25;;;13.90;99.90;;;;;;5065830;28;20402;-69
2022/11/08 07:02:39;;;;;;;12.55;2.17;;;13.90;99.90;;;;;;5067632;28;20078;-71
2022/11/08 07:05:05;;;;;;;11.60;2.25;;;14.00;99.90;;;;;;5066520;28;20736;-70
2022/11/08 07:07:31;;;;;;;17.25;2.03;;;14.00;99.90;;;;;;5076384;28;20146;-71
2022/11/08 07:09:56;;;;;;;15.70;2.35;;;14.00;99.90;;;;;;5066076;28;20485;-70
2022/11/08 07:12:22;;;;;;;9.75;2.25;;;14.00;99.90;;;;;;5064361;28;20459;-71
2022/11/08 07:14:47;;;;;;;21.40;2.53;;;14.00;99.90;;;;;;5064575;28;20036;-70
2022/11/08 07:17:14;;;;;;;18.88;2.30;;;13.90;99.90;;;;;;5065216;28;20062;-70
2022/11/08 07:19:40;;;;;;;15.95;2.28;;;13.90;99.90;;;;;;5047637;28;20041;-70
2022/11/08 07:22:06;;;;;;;15.35;2.83;;;13.90;99.90;;;;;;5065734;28;20036;-70
2022/11/08 07:24:31;;;;;;;19.80;2.22;;;13.90;99.90;;;;;;5066192;28;20031;-70
2022/11/08 07:26:57;;;;;;;12.35;2.15;;;13.80;99.90;;;;;;5066735;28;20047;-70
2022/11/08 07:29:22;;;;;;;13.32;1.88;;;13.90;99.90;;;;;;5061095;28;20045;-71
2022/11/08 07:31:48;;;;;;;12.77;2.05;;;13.90;99.90;;;;;;5062225;28;20390;-70
2022/11/08 07:34:14;;;;;;;13.45;1.75;;;13.90;99.90;;;;;;5065865;28;20033;-69
2022/11/08 07:36:39;;;;;;;11.88;1.70;;;13.90;99.90;;;;;;5066087;28;20052;-70
2022/11/08 07:39:05;;;;;;;12.15;1.60;;;13.90;99.90;;;;;;5047933;28;20085;-70
2022/11/08 07:41:30;;;;;;;10.80;1.27;;;14.00;99.90;;;;;;5041862;28;20558;-71
2022/11/08 07:43:56;;;;;;;15.40;2.13;;;14.00;99.90;;;;;;5063334;28;20048;-70
2022/11/08 07:46:21;;;;;;;12.15;2.33;;;14.00;99.90;;;;;;5063406;28;20024;-71
2022/11/08 07:48:47;;;;;;;12.20;2.42;;;14.00;99.90;;;;;;5065953;28;20483;-70
2022/11/08 07:51:13;;;;;;;13.63;1.70;;;14.10;99.90;;;;;;5070840;28;20032;-69
2022/11/08 07:53:38;;;;;;;14.77;1.52;;;14.20;99.90;;;;;;5065206;28;20032;-70
2022/11/08 07:56:04;;;;;;;11.85;2.05;;;14.20;99.90;;;;;;5065833;28;20440;-70
2022/11/08 07:58:29;;;;;;;11.45;1.48;;;14.20;99.90;;;;;;5069374;28;20035;-70
2022/11/08 08:01:00;;;;;;;11.93;1.85;;;14.20;99.90;;;;;;5065479;28;20112;-71
2022/11/08 08:03:25;;;;;;;11.27;1.80;;;14.20;99.90;;;;;;5047491;28;20028;-70
2022/11/08 08:05:52;;;;;;;10.07;1.80;;;14.30;99.90;;;;;;5062386;28;20045;-69
2022/11/08 08:08:18;;;;;;;13.50;1.98;;;14.20;99.90;;;;;;5063816;28;20398;-70
2022/11/08 08:10:44;;;;;;;10.30;2.05;;;14.30;99.90;;;;;;5060485;28;20051;-70
2022/11/08 08:13:10;;;;;;;15.65;2.42;;;14.30;99.90;;;;;;5061620;28;20032;-70
2022/11/08 08:15:35;;;;;;;13.93;2.83;;;14.30;99.90;;;;;;5063893;28;20511;-70
2022/11/08 08:18:03;;;;;;;12.57;2.00;;;14.30;99.90;;;;;;5069273;28;20067;-70
2022/11/08 08:20:29;;;;;;;13.02;1.75;;;14.30;99.90;;;;;;5062649;28;20049;-70
2022/11/08 08:22:55;;;;;;;15.05;1.70;;;14.40;99.90;;;;;;5065882;28;20458;-70
2022/11/08 08:25:21;;;;;;;11.23;1.85;;;14.40;99.90;;;;;;5066585;28;20115;-70
2022/11/08 08:27:48;;;;;;;19.50;2.50;;;14.50;99.90;;;;;;5048411;28;20037;-70
2022/11/08 08:30:14;;;;;;;13.63;2.13;;;14.60;99.90;;;;;;5066330;28;20025;-70
2022/11/08 08:32:39;;;;;;;12.98;1.92;;;14.60;99.90;;;;;;5048124;28;20028;-70
2022/11/08 08:35:05;;;;;;;15.23;2.17;;;14.70;99.90;;;;;;5074683;28;20024;-71
2022/11/08 08:37:31;;;;;;;12.23;1.80;;;14.80;99.90;;;;;;5086442;28;20033;-70
2022/11/08 08:39:56;;;;;;;10.40;1.73;;;14.80;99.90;;;;;;5062138;28;20040;-70
2022/11/08 08:42:22;;;;;;;16.95;2.78;;;14.90;99.90;;;;;;5066090;28;20375;-70
2022/11/08 08:44:47;;;;;;;15.45;2.00;;;14.90;99.90;;;;;;5047906;28;20036;-70
2022/11/08 08:47:13;;;;;;;13.43;2.05;;;15.10;99.90;;;;;;5063860;28;20032;-70
2022/11/08 08:49:39;;;;;;;12.77;1.60;;;15.00;99.90;;;;;;5047627;28;20542;-70
2022/11/08 08:52:04;;;;;;;12.30;2.00;;;15.00;99.90;;;;;;5066537;28;20143;-69
2022/11/08 08:54:30;;;;;;;14.95;2.17;;;14.90;99.90;;;;;;5066532;28;20033;-70
2022/11/08 08:56:56;;;;;;;15.40;1.80;;;14.80;99.90;;;;;;5066541;28;20025;-71
2022/11/08 08:59:21;;;;;;;14.35;1.80;;;14.70;99.90;;;;;;5066151;28;20479;-70
2022/11/08 09:01:47;;;;;;;11.00;2.00;;;14.80;99.90;;;;;;5066402;28;20036;-71
2022/11/08 09:04:12;;;;;;;12.32;1.98;;;14.70;99.90;;;;;;5065950;28;20123;-71
2022/11/08 09:06:38;;;;;;;11.32;1.52;;;14.70;99.90;;;;;;5065495;28;20040;-70
2022/11/08 09:09:03;;;;;;;16.80;2.28;;;14.60;99.90;;;;;;5047102;28;20020;-70
2022/11/08 09:11:29;;;;;;;12.27;2.22;;;14.60;99.90;;;;;;5065275;28;20430;-70
2022/11/08 09:13:55;;;;;;;11.88;1.95;;;14.60;99.90;;;;;;5065198;28;20024;-70
2022/11/08 09:16:20;;;;;;;11.70;1.73;;;14.60;99.90;;;;;;5065300;28;20028;-70
2022/11/08 09:18:46;;;;;;;15.13;1.77;;;14.60;99.90;;;;;;5065495;28;20443;-71
2022/11/08 09:21:11;;;;;;;15.57;2.33;;;14.60;99.90;;;;;;5068370;28;20115;-70
2022/11/08 09:23:37;;;;;;;15.68;2.42;;;14.60;99.90;;;;;;5068718;28;20029;-70
2022/11/08 09:26:04;;;;;;;15.95;2.53;;;14.60;99.90;;;;;;5069713;28;20051;-71
2022/11/08 09:28:31;;;;;;;15.15;2.33;;;14.60;99.90;;;;;;5050986;28;20039;-70
2022/11/08 09:31:02;;;;;;;15.40;2.42;;;14.60;99.90;;;;;;5068381;28;20726;-70
2022/11/08 09:33:28;;;;;;;19.58;2.70;;;14.70;99.90;;;;;;5050258;28;20039;-70
2022/11/08 09:35:54;;;;;;;14.55;2.20;;;14.70;99.90;;;;;;5068761;28;20027;-70
2022/11/08 09:38:19;;;;;;;16.63;2.85;;;14.70;99.90;;;;;;5069173;28;20033;-70
2022/11/08 09:40:57;;;;;;;15.43;2.67;;;14.70;99.90;;;;;;5051160;28;20047;-68
2022/11/08 09:43:39;;;;;;;13.73;2.20;;;14.70;99.90;;;;;;5069156;28;20029;-70
2022/11/08 09:46:15;;;;;;;13.63;2.22;;;14.70;99.90;;;;;;5068576;28;20056;-70
2022/11/08 09:48:43;;;;;;;13.75;2.05;;;14.80;99.90;;;;;;5068899;28;20382;-69
2022/11/08 09:51:21;;;;;;;13.55;2.45;;;14.80;99.90;;;;;;5068517;28;20111;-69
2022/11/08 09:53:57;;;;;;;11.77;2.03;;;14.90;99.90;;;;;;5050405;28;20037;-68
2022/11/08 09:56:30;;;;;;;14.02;1.95;;;14.90;99.90;;;;;;5068763;28;20048;-69
2022/11/08 09:59:02;;;;;;;16.38;2.60;;;14.90;99.90;;;;;;5068679;28;20064;-69
2022/11/08 10:01:35;;;;;;;13.93;2.20;;;15.00;99.90;;;;;;5068915;28;20079;-71
2022/11/08 10:04:07;;;;;;;18.35;2.47;;;15.00;99.90;;;;;;5050942;28;20051;-68
2022/11/08 10:06:48;;;;;;;16.45;2.20;;;15.00;99.90;;;;;;5069098;28;20498;-71
2022/11/08 10:09:35;;;;;;;19.00;2.67;;;15.10;99.90;;;;;;5068879;28;20560;-69
2022/11/08 10:12:23;;;;;;;16.05;2.67;;;15.10;99.90;;;;;;5030757;28;20150;-70
2022/11/08 10:15:15;;;;;;;19.38;2.85;;;15.20;99.90;;;;;;5047956;28;20108;-70
2022/11/08 10:17:46;;;;;;;17.05;2.72;;;15.20;99.90;;;;;;5047777;28;20025;-71
2022/11/08 10:20:37;;;;;;;17.42;2.72;;;15.30;99.90;;;;;;5055855;28;20147;-70
2022/11/08 10:23:25;;;;;;;18.88;2.58;;;15.30;99.90;;;;;;5050253;28;20070;-69
2022/11/08 10:25:57;;;;;;;20.45;2.50;;;15.40;99.90;;;;;;5067529;28;20547;-70
2022/11/08 10:28:40;;;;;;;15.80;3.15;;;15.40;99.90;;;;;;5068140;28;20029;-68
2022/11/08 10:31:06;;;;;;;17.23;2.83;;;15.30;99.90;;;;;;5067801;28;20051;-69
2022/11/08 10:33:54;;;;;;;18.05;2.20;;;15.30;99.90;;;;;;5068317;28;20031;-70
2022/11/08 10:36:40;;;;;;;17.77;2.75;;;15.30;99.90;;;;;;5070313;28;20024;-69
2022/11/08 10:39:16;;;;;;;19.58;3.15;;;15.30;99.90;;;;;;5088288;28;20111;-71
2022/11/08 10:42:12;;;;;;;18.65;2.28;;;15.30;99.90;;;;;;5048196;28;20036;-70
2022/11/08 10:44:40;;;;;;;20.52;2.83;;;15.30;99.90;;;;;;5047815;28;20106;-70
2022/11/08 10:47:14;;;;;;;17.48;3.05;;;15.30;99.90;;;;;;5048402;28;20033;-70
2022/11/08 10:49:42;;;;;;;16.35;2.50;;;15.40;99.90;;;;;;5050593;28;20450;-70
2022/11/08 10:52:10;;;;;;;16.80;3.08;;;15.40;99.90;;;;;;5049270;28;20774;-70
2022/11/08 10:54:54;;;;;;;21.67;2.92;;;15.40;99.90;;;;;;5067132;28;20478;-69
2022/11/08 10:57:22;;;;;;;18.90;2.97;;;15.30;99.90;;;;;;5066930;28;20588;-71
2022/11/08 10:59:49;;;;;;;18.55;2.60;;;15.30;99.90;;;;;;5067358;28;20933;-67
2022/11/08 11:02:32;;;;;;;12.98;2.42;;;15.30;99.90;;;;;;5049771;28;20119;-69
2022/11/08 11:05:20;;;;;;;21.08;3.25;;;15.30;99.90;;;;;;5067120;28;20075;-69
2022/11/08 11:07:52;;;;;;;13.23;2.45;;;15.30;99.90;;;;;;5066953;28;20040;-69
2022/11/08 11:10:27;;;;;;;14.95;2.88;;;15.30;99.90;;;;;;5067476;28;20033;-69
2022/11/08 11:13:01;;;;;;;18.30;3.08;;;15.40;99.90;;;;;;5068061;28;20191;-71
2022/11/08 11:15:50;;;;;;;14.02;2.55;;;15.40;99.90;;;;;;5049166;28;20048;-70
2022/11/08 11:18:26;;;;;;;18.40;3.23;;;15.50;99.90;;;;;;5056385;28;20396;-70
2022/11/08 11:21:10;;;;;;;18.42;3.38;;;15.50;99.90;;;;;;5067203;28;20403;-70
2022/11/08 11:23:40;;;;;;;18.35;3.58;;;15.60;99.90;;;;;;5067205;28;20025;-73
2022/11/08 11:26:15;;;;;;;20.35;3.65;;;15.60;99.90;;;;;;5067376;28;20048;-71
2022/11/08 11:29:03;;;;;;;18.25;3.13;;;15.70;99.90;;;;;;5049570;28;20084;-70
2022/11/08 11:31:43;;;;;;;19.52;2.80;;;15.80;99.90;;;;;;5066625;28;20040;-71
2022/11/08 11:34:18;;;;;;;19.60;2.63;;;15.80;99.90;;;;;;5067475;28;20029;-70
2022/11/08 11:36:51;;;;;;;20.80;3.33;;;15.90;99.90;;;;;;5086841;28;20170;-69
2022/11/08 11:39:31;;;;;;;17.52;3.30;;;15.90;99.90;;;;;;5086970;28;20027;-70
2022/11/08 11:42:08;;;;;;;18.70;2.55;;;15.80;99.90;;;;;;5065206;28;20067;-70
2022/11/08 11:45:13;;;;;;;20.52;3.60;;;15.80;99.90;;;;;;5066442;28;20039;-70
2022/11/08 11:48:00;;;;;;;21.30;3.47;;;15.80;99.90;;;;;;5067034;28;20111;-69
2022/11/08 11:50:36;;;;;;;15.07;2.70;;;16.00;99.90;;;;;;5066490;28;20044;-68
2022/11/08 11:53:23;;;;;;;22.50;3.40;;;16.00;99.90;;;;;;5067112;28;20055;-70
2022/11/08 11:56:26;;;;;;;18.70;3.05;;;16.10;99.90;;;;;;5066774;28;20051;-69
2022/11/08 11:59:22;;;;;;;17.35;3.00;;;16.10;99.90;;;;;;5067097;28;20044;-69
2022/11/08 12:02:25;;;;;;;16.55;3.03;;;16.30;99.90;;;;;;5047550;28;20049;-69
2022/11/08 12:05:27;;;;;;;23.45;3.85;;;16.40;99.90;;;;;;5028639;28;20024;-70
2022/11/08 12:08:47;;;;;;;19.52;4.10;;;16.40;99.90;;;;;;4967905;28;20062;-70
2022/11/08 12:11:30;;;;;;;18.23;3.40;;;16.40;99.90;;;;;;4980891;28;20610;-69
2022/11/08 12:14:16;;;;;;;14.55;2.67;;;16.50;99.90;;;;;;4984793;28;20039;-70
2022/11/08 12:16:50;;;;;;;18.20;3.00;;;16.40;99.90;;;;;;5031226;28;20118;-70
2022/11/08 12:19:37;;;;;;;22.20;3.70;;;16.20;99.90;;;;;;5066456;28;20474;-70
2022/11/08 12:22:14;;;;;;;20.55;3.80;;;16.00;99.90;;;;;;5066880;28;20403;-70
2022/11/08 12:24:55;;;;;;;20.05;3.78;;;16.10;99.90;;;;;;5066588;28;20032;-70
2022/11/08 12:27:59;;;;;;;18.88;3.20;;;16.00;99.90;;;;;;5048004;28;20035;-70
2022/11/08 12:30:37;;;;;;;21.52;3.70;;;16.10;99.90;;;;;;5024470;28;20159;-69
2022/11/08 12:33:10;;;;;;;18.60;3.17;;;16.10;99.90;;;;;;5066127;28;20040;-69
2022/11/08 12:36:00;;;;;;;20.33;3.42;;;16.00;99.90;;;;;;5048227;28;20067;-69
2022/11/08 12:39:03;;;;;;;20.38;3.35;;;15.90;99.90;;;;;;5066773;28;20115;-70
2022/11/08 12:41:43;;;;;;;19.55;3.78;;;15.90;99.90;;;;;;5047467;28;20035;-71
2022/11/08 12:44:18;;;;;;;24.05;3.45;;;15.80;99.90;;;;;;5048113;28;20693;-70
2022/11/08 12:47:01;;;;;;;17.55;3.40;;;15.80;99.90;;;;;;5065805;28;20033;-67
2022/11/08 12:49:39;;;;;;;22.35;3.47;;;15.70;99.90;;;;;;5065976;28;20497;-68
2022/11/08 12:52:11;;;;;;;17.50;3.35;;;15.80;99.90;;;;;;5066326;28;20515;-69
2022/11/08 12:54:50;;;;;;;23.95;3.45;;;16.00;99.90;;;;;;5068322;28;20107;-69
2022/11/08 12:57:19;;;;;;;16.30;2.58;;;16.10;99.90;;;;;;5070194;28;20032;-68
2022/11/08 12:59:50;;;;;;;18.13;2.85;;;16.20;99.90;;;;;;5069632;28;20031;-69
2022/11/08 13:02:29;;;;;;;18.67;3.28;;;16.00;99.90;;;;;;5052131;28;20024;-70
2022/11/08 13:05:19;;;;;;;23.75;4.68;;;15.90;99.90;;;;;;5070599;28;20056;-69
2022/11/08 13:08:21;;;;;;;22.65;3.42;;;15.80;99.90;;;;;;5069806;28;20031;-68
2022/11/08 13:11:10;;;;;;;23.75;3.92;;;15.70;99.90;;;;;;5069619;28;20445;-68
2022/11/08 13:13:49;;;;;;;19.83;3.25;;;15.70;99.90;;;;;;5051625;28;20028;-69
2022/11/08 13:16:24;;;;;;;15.20;3.10;;;15.70;99.90;;;;;;5051519;28;20036;-69